Oceana Nas /Apollo Soucek Field/ Station
KNTU : now visible

Airfield :











YOU CAN JOIN US ON...

 
LOGIN :

Register | Disclaimer

   EN    FR    IT 

 









Legend :    VFR   Marginal VFR   IFR   Intensive IFR   Very Intensive IFR
Visi :
Ceiling :
>= 8 km
>= 3000ft
5 to 8 km
1000 to 3000 ft
1500m to 5 km
500 to 1000 ft
800 to 1500m
200 to 500 ft
< 800m
< 200 ft
Symbols :   Thunderstorms  Fog  Heavy snow  Heavy precipitations  Wind > 20 kt






- Airport Elevation : 23 ft


KNTU - Oceana Nas /Apollo Soucek Field/ Station

CURRENT METAR :
  • 250356Z 00000KT 10SM CLR 22/21 A2991 RMK AO2 SLP131 T02170206

EXPIRED METARs :
  • 250256Z 11003KT 10SM CLR 23/22 A2990 RMK AO2 SLP127 T02280217 53024
  • 250156Z 00000KT 10SM CLR 24/21 A2987 RMK AO2 SLP118 T02390211
  • 250056Z 00000KT 10SM FEW070 SCT300 24/22 A2984 RMK AO2 SLP107 T02440217
  • 242356Z 00000KT 10SM SCT070 BKN300 27/22 A2983 RMK AO2 SLP103 T02720217 10311 20228 53021

TAF TAF KNTU
Valid from the 24 at 23:00 until the 25 at 23:00 UTC


2423/2523 02008KT 9999 FEW050 521809 522709 QNH2975INS
FM250300 VRB05KT 9999 SKC 500000 QNH2980INS
FM251800 13008KT 9999 SCT050 QNH2994INS TX30/2518Z TN20/2510Z FN20051
KZDC FIR / North America



MET'MAP, your aeronautical weather chart ! - Copyright ORBIFLY December 2007 - Disclaimer

ORBIFLY MET'MAP TEAM :

Programming & Development : Alexandra Zaïnal
Original concept : Baudouin d'Aumeries
Technical & hardware support : Manuel Goepfert
Assistance : Marc-Olivier Méhu




SOURCES & CREDITS :

   NOAA       Earth
Advisory